sensor_id;sensor_type;location;lat;lon;timestamp;P1;durP1;ratioP1;P2;durP2;ratioP2
49464;SDS011;35358;49.342;8.802;2023-02-05T00:00:37;4.97;;;1.67;;
49464;SDS011;35358;49.342;8.802;2023-02-05T00:03:02;4.97;;;1.83;;
49464;SDS011;35358;49.342;8.802;2023-02-05T00:05:28;7.18;;;1.98;;
49464;SDS011;35358;49.342;8.802;2023-02-05T00:07:56;10.10;;;2.65;;
49464;SDS011;35358;49.342;8.802;2023-02-05T00:10:24;10.15;;;2.97;;
49464;SDS011;35358;49.342;8.802;2023-02-05T00:12:49;5.75;;;2.63;;
49464;SDS011;35358;49.342;8.802;2023-02-05T00:15:15;10.82;;;2.75;;
49464;SDS011;35358;49.342;8.802;2023-02-05T00:17:43;6.93;;;2.72;;
49464;SDS011;35358;49.342;8.802;2023-02-05T00:20:08;6.22;;;2.53;;
49464;SDS011;35358;49.342;8.802;2023-02-05T00:22:37;8.32;;;2.92;;
49464;SDS011;35358;49.342;8.802;2023-02-05T00:25:02;7.30;;;2.78;;
49464;SDS011;35358;49.342;8.802;2023-02-05T00:27:28;5.88;;;2.45;;
49464;SDS011;35358;49.342;8.802;2023-02-05T00:29:54;5.75;;;2.05;;
49464;SDS011;35358;49.342;8.802;2023-02-05T00:32:22;4.65;;;2.10;;
49464;SDS011;35358;49.342;8.802;2023-02-05T00:34:52;5.68;;;2.45;;
49464;SDS011;35358;49.342;8.802;2023-02-05T00:37:18;6.90;;;2.17;;
49464;SDS011;35358;49.342;8.802;2023-02-05T00:39:43;8.65;;;2.72;;
49464;SDS011;35358;49.342;8.802;2023-02-05T00:42:09;7.43;;;2.28;;
49464;SDS011;35358;49.342;8.802;2023-02-05T00:44:34;5.30;;;2.20;;
49464;SDS011;35358;49.342;8.802;2023-02-05T00:47:00;4.32;;;1.90;;
49464;SDS011;35358;49.342;8.802;2023-02-05T00:49:25;4.70;;;1.77;;
49464;SDS011;35358;49.342;8.802;2023-02-05T00:51:51;4.13;;;1.23;;
49464;SDS011;35358;49.342;8.802;2023-02-05T00:54:17;4.35;;;1.45;;
49464;SDS011;35358;49.342;8.802;2023-02-05T00:56:42;3.15;;;1.83;;
49464;SDS011;35358;49.342;8.802;2023-02-05T00:59:08;6.18;;;1.80;;
49464;SDS011;35358;49.342;8.802;2023-02-05T01:01:34;3.30;;;1.45;;
49464;SDS011;35358;49.342;8.802;2023-02-05T01:04:02;2.75;;;1.48;;
49464;SDS011;35358;49.342;8.802;2023-02-05T01:06:30;6.65;;;1.95;;
49464;SDS011;35358;49.342;8.802;2023-02-05T01:08:58;6.05;;;1.70;;
49464;SDS011;35358;49.342;8.802;2023-02-05T01:11:26;4.57;;;1.55;;
49464;SDS011;35358;49.342;8.802;2023-02-05T01:13:54;5.88;;;2.00;;
49464;SDS011;35358;49.342;8.802;2023-02-05T01:16:20;4.75;;;1.30;;
49464;SDS011;35358;49.342;8.802;2023-02-05T01:18:48;4.15;;;1.60;;
49464;SDS011;35358;49.342;8.802;2023-02-05T01:21:17;5.15;;;1.50;;
49464;SDS011;35358;49.342;8.802;2023-02-05T01:23:42;3.97;;;1.52;;
49464;SDS011;35358;49.342;8.802;2023-02-05T01:26:10;5.55;;;1.75;;
49464;SDS011;35358;49.342;8.802;2023-02-05T01:28:36;3.85;;;1.83;;
49464;SDS011;35358;49.342;8.802;2023-02-05T01:31:04;4.05;;;1.58;;
49464;SDS011;35358;49.342;8.802;2023-02-05T01:33:31;3.47;;;1.50;;
49464;SDS011;35358;49.342;8.802;2023-02-05T01:35:57;5.32;;;1.58;;
49464;SDS011;35358;49.342;8.802;2023-02-05T01:38:22;8.35;;;1.85;;
49464;SDS011;35358;49.342;8.802;2023-02-05T01:40:48;2.83;;;1.38;;
49464;SDS011;35358;49.342;8.802;2023-02-05T01:43:14;3.65;;;1.65;;
49464;SDS011;35358;49.342;8.802;2023-02-05T01:48:34;4.30;;;1.98;;
49464;SDS011;35358;49.342;8.802;2023-02-05T01:51:05;6.93;;;2.88;;
49464;SDS011;35358;49.342;8.802;2023-02-05T01:53:35;7.75;;;2.90;;
49464;SDS011;35358;49.342;8.802;2023-02-05T01:56:06;6.53;;;2.67;;
49464;SDS011;35358;49.342;8.802;2023-02-05T01:58:44;4.60;;;2.28;;
49464;SDS011;35358;49.342;8.802;2023-02-05T02:01:30;8.15;;;3.30;;
49464;SDS011;35358;49.342;8.802;2023-02-05T02:03:56;5.85;;;2.33;;
49464;SDS011;35358;49.342;8.802;2023-02-05T02:06:28;6.20;;;2.25;;
49464;SDS011;35358;49.342;8.802;2023-02-05T02:08:55;5.00;;;2.00;;
49464;SDS011;35358;49.342;8.802;2023-02-05T02:11:21;7.18;;;2.28;;
49464;SDS011;35358;49.342;8.802;2023-02-05T02:13:53;6.10;;;1.90;;
49464;SDS011;35358;49.342;8.802;2023-02-05T02:16:24;3.85;;;1.67;;
49464;SDS011;35358;49.342;8.802;2023-02-05T02:18:51;2.78;;;1.45;;
49464;SDS011;35358;49.342;8.802;2023-02-05T02:29:25;2.60;;;1.80;;
49464;SDS011;35358;49.342;8.802;2023-02-05T02:34:39;3.70;;;1.50;;
49464;SDS011;35358;49.342;8.802;2023-02-05T02:37:12;3.92;;;1.70;;
49464;SDS011;35358;49.342;8.802;2023-02-05T02:39:57;4.95;;;1.65;;
49464;SDS011;35358;49.342;8.802;2023-02-05T02:43:00;3.15;;;1.27;;
49464;SDS011;35358;49.342;8.802;2023-02-05T02:45:40;2.35;;;1.05;;
49464;SDS011;35358;49.342;8.802;2023-02-05T02:48:13;4.50;;;1.60;;
49464;SDS011;35358;49.342;8.802;2023-02-05T02:50:47;5.65;;;1.85;;
49464;SDS011;35358;49.342;8.802;2023-02-05T02:53:20;5.72;;;2.00;;
49464;SDS011;35358;49.342;8.802;2023-02-05T02:55:53;3.83;;;1.77;;
49464;SDS011;35358;49.342;8.802;2023-02-05T02:58:22;4.10;;;2.00;;
49464;SDS011;35358;49.342;8.802;2023-02-05T03:00:52;5.05;;;2.72;;
49464;SDS011;35358;49.342;8.802;2023-02-05T03:03:20;5.70;;;2.47;;
49464;SDS011;35358;49.342;8.802;2023-02-05T03:05:48;4.93;;;2.30;;
49464;SDS011;35358;49.342;8.802;2023-02-05T03:08:22;5.85;;;1.90;;
49464;SDS011;35358;49.342;8.802;2023-02-05T03:11:12;6.38;;;2.28;;
49464;SDS011;35358;49.342;8.802;2023-02-05T03:13:41;4.18;;;2.00;;
49464;SDS011;35358;49.342;8.802;2023-02-05T03:16:08;5.38;;;1.55;;
49464;SDS011;35358;49.342;8.802;2023-02-05T03:18:34;8.73;;;1.75;;
49464;SDS011;35358;49.342;8.802;2023-02-05T03:21:17;4.32;;;1.80;;
49464;SDS011;35358;49.342;8.802;2023-02-05T03:23:50;6.50;;;1.77;;
49464;SDS011;35358;49.342;8.802;2023-02-05T03:26:29;6.38;;;2.13;;
49464;SDS011;35358;49.342;8.802;2023-02-05T03:29:05;3.00;;;1.42;;
49464;SDS011;35358;49.342;8.802;2023-02-05T03:34:43;3.20;;;1.80;;
49464;SDS011;35358;49.342;8.802;2023-02-05T03:40:02;4.47;;;1.90;;
49464;SDS011;35358;49.342;8.802;2023-02-05T03:50:45;5.80;;;1.95;;
49464;SDS011;35358;49.342;8.802;2023-02-05T03:53:37;6.63;;;1.90;;
49464;SDS011;35358;49.342;8.802;2023-02-05T03:56:26;9.80;;;2.00;;
49464;SDS011;35358;49.342;8.802;2023-02-05T03:58:58;4.32;;;1.92;;
49464;SDS011;35358;49.342;8.802;2023-02-05T04:01:24;4.47;;;1.70;;
49464;SDS011;35358;49.342;8.802;2023-02-05T04:03:49;4.28;;;1.92;;
49464;SDS011;35358;49.342;8.802;2023-02-05T04:06:17;4.30;;;1.80;;
49464;SDS011;35358;49.342;8.802;2023-02-05T04:08:43;4.95;;;2.03;;
49464;SDS011;35358;49.342;8.802;2023-02-05T04:11:13;5.00;;;2.22;;
49464;SDS011;35358;49.342;8.802;2023-02-05T04:13:39;5.63;;;2.60;;
49464;SDS011;35358;49.342;8.802;2023-02-05T04:16:04;3.90;;;2.00;;
49464;SDS011;35358;49.342;8.802;2023-02-05T04:18:30;3.55;;;1.60;;
49464;SDS011;35358;49.342;8.802;2023-02-05T04:20:55;5.63;;;1.90;;
49464;SDS011;35358;49.342;8.802;2023-02-05T04:23:23;9.05;;;2.15;;
49464;SDS011;35358;49.342;8.802;2023-02-05T04:25:51;10.07;;;2.25;;
49464;SDS011;35358;49.342;8.802;2023-02-05T04:28:18;5.00;;;2.38;;
49464;SDS011;35358;49.342;8.802;2023-02-05T04:30:43;6.03;;;1.75;;
49464;SDS011;35358;49.342;8.802;2023-02-05T04:33:09;6.43;;;2.25;;
49464;SDS011;35358;49.342;8.802;2023-02-05T04:35:34;4.97;;;1.85;;
49464;SDS011;35358;49.342;8.802;2023-02-05T04:38:02;6.07;;;2.10;;
49464;SDS011;35358;49.342;8.802;2023-02-05T04:40:30;3.88;;;1.90;;
49464;SDS011;35358;49.342;8.802;2023-02-05T04:42:56;4.70;;;1.77;;
49464;SDS011;35358;49.342;8.802;2023-02-05T04:45:21;3.88;;;2.00;;
49464;SDS011;35358;49.342;8.802;2023-02-05T04:47:52;3.42;;;1.88;;
49464;SDS011;35358;49.342;8.802;2023-02-05T04:50:18;6.15;;;1.92;;
49464;SDS011;35358;49.342;8.802;2023-02-05T04:52:46;4.07;;;2.15;;
49464;SDS011;35358;49.342;8.802;2023-02-05T04:55:11;2.95;;;1.58;;
49464;SDS011;35358;49.342;8.802;2023-02-05T04:57:37;5.85;;;1.95;;
49464;SDS011;35358;49.342;8.802;2023-02-05T05:00:03;5.65;;;2.10;;
49464;SDS011;35358;49.342;8.802;2023-02-05T05:02:31;4.03;;;2.00;;
49464;SDS011;35358;49.342;8.802;2023-02-05T05:04:59;3.40;;;2.00;;
49464;SDS011;35358;49.342;8.802;2023-02-05T05:07:24;3.58;;;1.95;;
49464;SDS011;35358;49.342;8.802;2023-02-05T05:09:50;5.45;;;1.90;;
49464;SDS011;35358;49.342;8.802;2023-02-05T05:12:16;3.70;;;2.30;;
49464;SDS011;35358;49.342;8.802;2023-02-05T05:14:44;7.85;;;2.28;;
49464;SDS011;35358;49.342;8.802;2023-02-05T05:17:09;6.07;;;2.20;;
49464;SDS011;35358;49.342;8.802;2023-02-05T05:19:36;5.88;;;2.10;;
49464;SDS011;35358;49.342;8.802;2023-02-05T05:22:04;5.22;;;1.90;;
49464;SDS011;35358;49.342;8.802;2023-02-05T05:24:30;4.07;;;2.00;;
49464;SDS011;35358;49.342;8.802;2023-02-05T05:27:00;5.57;;;2.15;;
49464;SDS011;35358;49.342;8.802;2023-02-05T05:29:26;3.63;;;1.80;;
49464;SDS011;35358;49.342;8.802;2023-02-05T05:31:54;4.65;;;1.98;;
49464;SDS011;35358;49.342;8.802;2023-02-05T05:34:20;7.05;;;2.40;;
49464;SDS011;35358;49.342;8.802;2023-02-05T05:36:48;3.63;;;1.88;;
49464;SDS011;35358;49.342;8.802;2023-02-05T05:39:17;4.20;;;1.80;;
49464;SDS011;35358;49.342;8.802;2023-02-05T05:42:02;4.63;;;1.60;;
49464;SDS011;35358;49.342;8.802;2023-02-05T05:44:47;7.60;;;2.45;;
49464;SDS011;35358;49.342;8.802;2023-02-05T05:47:21;3.80;;;2.15;;
49464;SDS011;35358;49.342;8.802;2023-02-05T05:49:47;9.88;;;2.75;;
49464;SDS011;35358;49.342;8.802;2023-02-05T05:52:13;5.00;;;2.55;;
49464;SDS011;35358;49.342;8.802;2023-02-05T05:54:41;5.75;;;3.55;;
49464;SDS011;35358;49.342;8.802;2023-02-05T05:57:08;4.70;;;3.90;;
49464;SDS011;35358;49.342;8.802;2023-02-05T05:59:34;4.03;;;2.28;;
49464;SDS011;35358;49.342;8.802;2023-02-05T06:02:02;5.20;;;2.58;;
49464;SDS011;35358;49.342;8.802;2023-02-05T06:04:28;4.13;;;2.75;;
49464;SDS011;35358;49.342;8.802;2023-02-05T06:06:54;5.50;;;2.25;;
49464;SDS011;35358;49.342;8.802;2023-02-05T06:09:20;5.25;;;1.90;;
49464;SDS011;35358;49.342;8.802;2023-02-05T06:11:50;3.53;;;2.03;;
49464;SDS011;35358;49.342;8.802;2023-02-05T06:14:18;4.65;;;2.70;;
49464;SDS011;35358;49.342;8.802;2023-02-05T06:16:46;6.05;;;2.95;;
49464;SDS011;35358;49.342;8.802;2023-02-05T06:19:14;3.53;;;2.08;;
49464;SDS011;35358;49.342;8.802;2023-02-05T06:21:39;4.25;;;2.35;;
49464;SDS011;35358;49.342;8.802;2023-02-05T06:24:07;4.90;;;2.83;;
49464;SDS011;35358;49.342;8.802;2023-02-05T06:26:35;7.22;;;3.42;;
49464;SDS011;35358;49.342;8.802;2023-02-05T06:29:03;6.35;;;3.08;;
49464;SDS011;35358;49.342;8.802;2023-02-05T06:31:31;7.03;;;3.42;;
49464;SDS011;35358;49.342;8.802;2023-02-05T06:33:57;6.22;;;3.40;;
49464;SDS011;35358;49.342;8.802;2023-02-05T06:36:28;4.75;;;2.97;;
49464;SDS011;35358;49.342;8.802;2023-02-05T06:38:53;5.57;;;3.63;;
49464;SDS011;35358;49.342;8.802;2023-02-05T06:41:19;7.00;;;3.35;;
49464;SDS011;35358;49.342;8.802;2023-02-05T06:43:47;7.57;;;3.58;;
49464;SDS011;35358;49.342;8.802;2023-02-05T06:46:12;5.45;;;3.42;;
49464;SDS011;35358;49.342;8.802;2023-02-05T06:48:38;4.80;;;2.42;;
49464;SDS011;35358;49.342;8.802;2023-02-05T06:51:03;4.22;;;2.63;;
49464;SDS011;35358;49.342;8.802;2023-02-05T06:53:32;5.53;;;2.80;;
49464;SDS011;35358;49.342;8.802;2023-02-05T06:55:57;2.65;;;2.00;;
49464;SDS011;35358;49.342;8.802;2023-02-05T06:58:23;4.43;;;2.30;;
49464;SDS011;35358;49.342;8.802;2023-02-05T07:00:49;5.03;;;2.65;;
49464;SDS011;35358;49.342;8.802;2023-02-05T07:03:14;4.28;;;1.90;;
49464;SDS011;35358;49.342;8.802;2023-02-05T07:05:40;4.32;;;1.98;;
49464;SDS011;35358;49.342;8.802;2023-02-05T07:08:08;15.82;;;6.50;;
49464;SDS011;35358;49.342;8.802;2023-02-05T07:10:35;8.65;;;4.85;;
49464;SDS011;35358;49.342;8.802;2023-02-05T07:13:03;7.88;;;3.67;;
49464;SDS011;35358;49.342;8.802;2023-02-05T07:15:29;7.47;;;3.95;;
49464;SDS011;35358;49.342;8.802;2023-02-05T07:17:54;9.93;;;5.22;;
49464;SDS011;35358;49.342;8.802;2023-02-05T07:20:21;11.70;;;6.35;;
49464;SDS011;35358;49.342;8.802;2023-02-05T07:22:51;7.78;;;4.10;;
49464;SDS011;35358;49.342;8.802;2023-02-05T07:25:19;9.65;;;4.85;;
49464;SDS011;35358;49.342;8.802;2023-02-05T07:27:49;5.63;;;3.97;;
49464;SDS011;35358;49.342;8.802;2023-02-05T07:30:17;8.40;;;4.15;;
49464;SDS011;35358;49.342;8.802;2023-02-05T07:32:45;6.97;;;4.18;;
49464;SDS011;35358;49.342;8.802;2023-02-05T07:35:11;8.45;;;4.65;;
49464;SDS011;35358;49.342;8.802;2023-02-05T07:37:36;7.03;;;3.70;;
49464;SDS011;35358;49.342;8.802;2023-02-05T07:40:03;6.50;;;3.83;;
49464;SDS011;35358;49.342;8.802;2023-02-05T07:42:29;5.65;;;3.38;;
49464;SDS011;35358;49.342;8.802;2023-02-05T07:44:55;11.05;;;5.10;;
49464;SDS011;35358;49.342;8.802;2023-02-05T07:47:22;8.88;;;4.68;;
49464;SDS011;35358;49.342;8.802;2023-02-05T07:49:50;9.35;;;4.00;;
49464;SDS011;35358;49.342;8.802;2023-02-05T07:52:16;6.63;;;3.78;;
49464;SDS011;35358;49.342;8.802;2023-02-05T07:54:41;5.65;;;3.88;;
49464;SDS011;35358;49.342;8.802;2023-02-05T07:57:07;9.05;;;5.40;;
49464;SDS011;35358;49.342;8.802;2023-02-05T07:59:33;13.05;;;8.45;;
49464;SDS011;35358;49.342;8.802;2023-02-05T08:02:01;5.43;;;3.92;;
49464;SDS011;35358;49.342;8.802;2023-02-05T08:04:27;8.50;;;3.72;;
49464;SDS011;35358;49.342;8.802;2023-02-05T08:06:52;5.95;;;3.00;;
49464;SDS011;35358;49.342;8.802;2023-02-05T08:09:18;6.93;;;3.28;;
49464;SDS011;35358;49.342;8.802;2023-02-05T08:11:46;6.00;;;3.80;;
49464;SDS011;35358;49.342;8.802;2023-02-05T08:14:11;7.90;;;4.32;;
49464;SDS011;35358;49.342;8.802;2023-02-05T08:16:37;7.65;;;4.72;;
49464;SDS011;35358;49.342;8.802;2023-02-05T08:19:07;10.45;;;5.45;;
49464;SDS011;35358;49.342;8.802;2023-02-05T08:21:39;7.38;;;5.60;;
49464;SDS011;35358;49.342;8.802;2023-02-05T08:24:07;8.85;;;5.82;;
49464;SDS011;35358;49.342;8.802;2023-02-05T08:26:32;9.23;;;5.53;;
49464;SDS011;35358;49.342;8.802;2023-02-05T08:29:00;6.57;;;5.28;;
49464;SDS011;35358;49.342;8.802;2023-02-05T08:31:28;5.80;;;4.57;;
49464;SDS011;35358;49.342;8.802;2023-02-05T08:33:54;6.07;;;4.70;;
49464;SDS011;35358;49.342;8.802;2023-02-05T08:36:21;6.15;;;4.22;;
49464;SDS011;35358;49.342;8.802;2023-02-05T08:38:52;4.95;;;3.90;;
49464;SDS011;35358;49.342;8.802;2023-02-05T08:41:17;6.32;;;3.78;;
49464;SDS011;35358;49.342;8.802;2023-02-05T08:43:44;6.10;;;4.25;;
49464;SDS011;35358;49.342;8.802;2023-02-05T08:46:15;6.03;;;4.07;;
49464;SDS011;35358;49.342;8.802;2023-02-05T08:51:09;7.68;;;5.25;;
49464;SDS011;35358;49.342;8.802;2023-02-05T08:53:38;7.15;;;4.97;;
49464;SDS011;35358;49.342;8.802;2023-02-05T08:56:06;8.20;;;5.50;;
49464;SDS011;35358;49.342;8.802;2023-02-05T08:58:34;6.07;;;4.50;;
49464;SDS011;35358;49.342;8.802;2023-02-05T09:01:01;7.90;;;4.40;;
49464;SDS011;35358;49.342;8.802;2023-02-05T09:03:33;7.97;;;5.22;;
49464;SDS011;35358;49.342;8.802;2023-02-05T09:05:59;7.38;;;5.70;;
49464;SDS011;35358;49.342;8.802;2023-02-05T09:08:28;10.00;;;6.13;;
49464;SDS011;35358;49.342;8.802;2023-02-05T09:10:53;9.00;;;5.38;;
49464;SDS011;35358;49.342;8.802;2023-02-05T09:13:21;9.30;;;5.88;;
49464;SDS011;35358;49.342;8.802;2023-02-05T09:15:47;10.35;;;7.22;;
49464;SDS011;35358;49.342;8.802;2023-02-05T09:18:15;8.50;;;6.18;;
49464;SDS011;35358;49.342;8.802;2023-02-05T09:20:42;8.63;;;5.95;;
49464;SDS011;35358;49.342;8.802;2023-02-05T09:23:10;8.70;;;5.57;;
49464;SDS011;35358;49.342;8.802;2023-02-05T09:25:37;6.22;;;4.10;;
49464;SDS011;35358;49.342;8.802;2023-02-05T09:28:06;7.85;;;4.85;;
49464;SDS011;35358;49.342;8.802;2023-02-05T09:30:36;6.78;;;4.63;;
49464;SDS011;35358;49.342;8.802;2023-02-05T09:33:05;6.90;;;4.60;;
49464;SDS011;35358;49.342;8.802;2023-02-05T09:35:32;7.18;;;4.80;;
49464;SDS011;35358;49.342;8.802;2023-02-05T09:38:01;8.40;;;5.18;;
49464;SDS011;35358;49.342;8.802;2023-02-05T09:40:41;6.82;;;3.83;;
49464;SDS011;35358;49.342;8.802;2023-02-05T09:45:59;6.88;;;4.60;;
49464;SDS011;35358;49.342;8.802;2023-02-05T09:54:05;12.30;;;5.65;;
49464;SDS011;35358;49.342;8.802;2023-02-05T09:56:42;12.30;;;6.03;;
49464;SDS011;35358;49.342;8.802;2023-02-05T09:59:24;14.00;;;6.03;;
49464;SDS011;35358;49.342;8.802;2023-02-05T10:01:52;7.80;;;5.15;;
49464;SDS011;35358;49.342;8.802;2023-02-05T10:04:21;9.43;;;6.50;;
49464;SDS011;35358;49.342;8.802;2023-02-05T10:14:43;7.97;;;5.75;;
49464;SDS011;35358;49.342;8.802;2023-02-05T10:33:57;11.75;;;6.85;;
49464;SDS011;35358;49.342;8.802;2023-02-05T10:39:19;15.18;;;8.52;;
49464;SDS011;35358;49.342;8.802;2023-02-05T10:44:28;19.52;;;9.25;;
49464;SDS011;35358;49.342;8.802;2023-02-05T10:47:04;21.20;;;9.52;;
49464;SDS011;35358;49.342;8.802;2023-02-05T10:52:27;17.20;;;10.90;;
49464;SDS011;35358;49.342;8.802;2023-02-05T10:54:55;15.07;;;9.98;;
49464;SDS011;35358;49.342;8.802;2023-02-05T10:57:23;17.73;;;10.50;;
49464;SDS011;35358;49.342;8.802;2023-02-05T10:59:55;18.35;;;11.25;;
49464;SDS011;35358;49.342;8.802;2023-02-05T11:02:25;20.08;;;13.18;;
49464;SDS011;35358;49.342;8.802;2023-02-05T11:05:00;16.75;;;11.02;;
49464;SDS011;35358;49.342;8.802;2023-02-05T11:10:22;19.65;;;11.63;;
49464;SDS011;35358;49.342;8.802;2023-02-05T11:12:51;16.10;;;11.30;;
49464;SDS011;35358;49.342;8.802;2023-02-05T11:15:24;20.85;;;11.85;;
49464;SDS011;35358;49.342;8.802;2023-02-05T11:28:03;22.52;;;15.48;;
49464;SDS011;35358;49.342;8.802;2023-02-05T11:30:32;19.70;;;14.57;;
49464;SDS011;35358;49.342;8.802;2023-02-05T11:33:32;25.13;;;16.17;;
49464;SDS011;35358;49.342;8.802;2023-02-05T11:35:54;19.08;;;13.45;;
49464;SDS011;35358;49.342;8.802;2023-02-05T11:38:44;19.73;;;13.65;;
49464;SDS011;35358;49.342;8.802;2023-02-05T11:41:36;21.23;;;13.60;;
49464;SDS011;35358;49.342;8.802;2023-02-05T11:44:28;15.60;;;9.82;;
49464;SDS011;35358;49.342;8.802;2023-02-05T11:47:00;14.70;;;11.40;;
49464;SDS011;35358;49.342;8.802;2023-02-05T11:49:31;32.00;;;22.02;;
49464;SDS011;35358;49.342;8.802;2023-02-05T11:51:59;26.42;;;18.05;;
49464;SDS011;35358;49.342;8.802;2023-02-05T11:54:33;14.85;;;10.43;;
49464;SDS011;35358;49.342;8.802;2023-02-05T11:59:28;15.60;;;9.80;;
49464;SDS011;35358;49.342;8.802;2023-02-05T12:02:42;15.32;;;8.95;;
49464;SDS011;35358;49.342;8.802;2023-02-05T12:07:25;16.42;;;10.38;;
49464;SDS011;35358;49.342;8.802;2023-02-05T12:09:57;20.05;;;11.15;;
49464;SDS011;35358;49.342;8.802;2023-02-05T12:12:29;21.05;;;11.80;;
49464;SDS011;35358;49.342;8.802;2023-02-05T12:17:53;17.50;;;11.05;;
49464;SDS011;35358;49.342;8.802;2023-02-05T12:34:39;12.45;;;9.50;;
49464;SDS011;35358;49.342;8.802;2023-02-05T12:57:52;16.55;;;10.68;;
49464;SDS011;35358;49.342;8.802;2023-02-05T13:00:26;28.23;;;14.35;;
49464;SDS011;35358;49.342;8.802;2023-02-05T13:05:57;13.10;;;9.18;;
49464;SDS011;35358;49.342;8.802;2023-02-05T13:09:19;13.85;;;9.27;;
49464;SDS011;35358;49.342;8.802;2023-02-05T13:11:42;8.65;;;5.75;;
49464;SDS011;35358;49.342;8.802;2023-02-05T13:17:06;10.30;;;7.28;;
49464;SDS011;35358;49.342;8.802;2023-02-05T13:19:51;10.55;;;7.28;;
49464;SDS011;35358;49.342;8.802;2023-02-05T13:33:55;7.40;;;5.30;;
49464;SDS011;35358;49.342;8.802;2023-02-05T13:56:02;6.68;;;4.28;;
49464;SDS011;35358;49.342;8.802;2023-02-05T13:59:07;7.05;;;4.18;;
49464;SDS011;35358;49.342;8.802;2023-02-05T14:01:53;6.80;;;4.32;;
49464;SDS011;35358;49.342;8.802;2023-02-05T14:06:56;10.43;;;7.13;;
49464;SDS011;35358;49.342;8.802;2023-02-05T14:12:21;6.10;;;3.70;;
49464;SDS011;35358;49.342;8.802;2023-02-05T14:31:14;3.88;;;2.47;;
49464;SDS011;35358;49.342;8.802;2023-02-05T14:33:40;3.30;;;2.38;;
49464;SDS011;35358;49.342;8.802;2023-02-05T14:41:46;4.70;;;2.88;;
49464;SDS011;35358;49.342;8.802;2023-02-05T14:44:18;2.85;;;2.38;;
49464;SDS011;35358;49.342;8.802;2023-02-05T14:52:02;3.60;;;2.88;;
49464;SDS011;35358;49.342;8.802;2023-02-05T14:54:42;3.85;;;2.78;;
49464;SDS011;35358;49.342;8.802;2023-02-05T15:08:03;3.88;;;3.13;;
49464;SDS011;35358;49.342;8.802;2023-02-05T15:13:27;4.60;;;3.13;;
49464;SDS011;35358;49.342;8.802;2023-02-05T15:18:45;8.93;;;5.55;;
49464;SDS011;35358;49.342;8.802;2023-02-05T15:21:18;5.78;;;3.58;;
49464;SDS011;35358;49.342;8.802;2023-02-05T15:26:46;7.32;;;4.28;;
49464;SDS011;35358;49.342;8.802;2023-02-05T15:29:35;5.03;;;3.80;;
49464;SDS011;35358;49.342;8.802;2023-02-05T15:32:07;7.57;;;4.70;;
49464;SDS011;35358;49.342;8.802;2023-02-05T15:34:43;10.13;;;6.53;;
49464;SDS011;35358;49.342;8.802;2023-02-05T15:37:18;9.45;;;6.05;;
49464;SDS011;35358;49.342;8.802;2023-02-05T15:39:50;9.30;;;6.50;;
49464;SDS011;35358;49.342;8.802;2023-02-05T15:42:27;4.65;;;3.20;;
49464;SDS011;35358;49.342;8.802;2023-02-05T15:47:45;6.90;;;4.78;;
49464;SDS011;35358;49.342;8.802;2023-02-05T15:50:30;4.53;;;3.05;;
49464;SDS011;35358;49.342;8.802;2023-02-05T15:52:58;4.65;;;3.03;;
49464;SDS011;35358;49.342;8.802;2023-02-05T15:55:27;5.00;;;3.50;;
49464;SDS011;35358;49.342;8.802;2023-02-05T15:58:00;5.45;;;4.07;;
49464;SDS011;35358;49.342;8.802;2023-02-05T16:00:29;5.32;;;3.47;;
49464;SDS011;35358;49.342;8.802;2023-02-05T16:02:58;7.88;;;5.35;;
49464;SDS011;35358;49.342;8.802;2023-02-05T16:05:30;6.57;;;4.80;;
49464;SDS011;35358;49.342;8.802;2023-02-05T16:07:56;6.30;;;4.75;;
49464;SDS011;35358;49.342;8.802;2023-02-05T16:10:32;5.30;;;4.00;;
49464;SDS011;35358;49.342;8.802;2023-02-05T16:13:05;4.03;;;3.13;;
49464;SDS011;35358;49.342;8.802;2023-02-05T16:15:39;4.88;;;3.72;;
49464;SDS011;35358;49.342;8.802;2023-02-05T16:18:13;6.82;;;5.78;;
49464;SDS011;35358;49.342;8.802;2023-02-05T16:20:54;5.85;;;4.68;;
49464;SDS011;35358;49.342;8.802;2023-02-05T16:23:37;7.68;;;5.07;;
49464;SDS011;35358;49.342;8.802;2023-02-05T16:26:20;7.10;;;5.00;;
49464;SDS011;35358;49.342;8.802;2023-02-05T16:28:53;8.88;;;5.20;;
49464;SDS011;35358;49.342;8.802;2023-02-05T16:31:33;6.57;;;5.13;;
49464;SDS011;35358;49.342;8.802;2023-02-05T16:36:37;4.68;;;3.60;;
49464;SDS011;35358;49.342;8.802;2023-02-05T16:42:36;4.88;;;3.88;;
49464;SDS011;35358;49.342;8.802;2023-02-05T16:47:35;5.80;;;4.82;;
49464;SDS011;35358;49.342;8.802;2023-02-05T16:50:30;7.05;;;5.07;;
49464;SDS011;35358;49.342;8.802;2023-02-05T16:53:02;47.10;;;24.98;;
49464;SDS011;35358;49.342;8.802;2023-02-05T16:55:38;25.80;;;16.73;;
49464;SDS011;35358;49.342;8.802;2023-02-05T16:58:09;11.40;;;7.13;;
49464;SDS011;35358;49.342;8.802;2023-02-05T17:00:51;6.03;;;4.55;;
49464;SDS011;35358;49.342;8.802;2023-02-05T17:03:20;4.53;;;3.78;;
49464;SDS011;35358;49.342;8.802;2023-02-05T17:06:19;4.55;;;3.92;;
49464;SDS011;35358;49.342;8.802;2023-02-05T17:08:39;3.75;;;3.15;;
49464;SDS011;35358;49.342;8.802;2023-02-05T17:11:29;6.93;;;2.92;;
49464;SDS011;35358;49.342;8.802;2023-02-05T17:14:08;3.53;;;2.90;;
49464;SDS011;35358;49.342;8.802;2023-02-05T17:16:54;2.70;;;2.38;;
49464;SDS011;35358;49.342;8.802;2023-02-05T17:19:29;5.60;;;3.28;;
49464;SDS011;35358;49.342;8.802;2023-02-05T17:24:41;11.25;;;7.45;;
49464;SDS011;35358;49.342;8.802;2023-02-05T17:27:11;9.98;;;6.88;;
49464;SDS011;35358;49.342;8.802;2023-02-05T17:29:40;6.22;;;5.07;;
49464;SDS011;35358;49.342;8.802;2023-02-05T17:32:08;10.13;;;6.70;;
49464;SDS011;35358;49.342;8.802;2023-02-05T17:34:44;10.15;;;7.43;;
49464;SDS011;35358;49.342;8.802;2023-02-05T17:37:11;11.05;;;8.02;;
49464;SDS011;35358;49.342;8.802;2023-02-05T17:39:39;7.43;;;5.50;;
49464;SDS011;35358;49.342;8.802;2023-02-05T17:42:10;5.00;;;2.92;;
49464;SDS011;35358;49.342;8.802;2023-02-05T17:44:48;2.90;;;2.00;;
49464;SDS011;35358;49.342;8.802;2023-02-05T17:47:17;2.05;;;1.85;;
49464;SDS011;35358;49.342;8.802;2023-02-05T17:49:45;2.78;;;1.90;;
49464;SDS011;35358;49.342;8.802;2023-02-05T17:52:14;2.45;;;1.85;;
49464;SDS011;35358;49.342;8.802;2023-02-05T17:54:39;2.10;;;1.67;;
49464;SDS011;35358;49.342;8.802;2023-02-05T17:57:13;2.10;;;1.67;;
49464;SDS011;35358;49.342;8.802;2023-02-05T17:59:39;2.15;;;1.65;;
49464;SDS011;35358;49.342;8.802;2023-02-05T18:02:09;1.65;;;1.35;;
49464;SDS011;35358;49.342;8.802;2023-02-05T18:04:38;1.45;;;1.33;;
49464;SDS011;35358;49.342;8.802;2023-02-05T18:07:05;4.00;;;1.60;;
49464;SDS011;35358;49.342;8.802;2023-02-05T18:10:01;1.63;;;1.30;;
49464;SDS011;35358;49.342;8.802;2023-02-05T18:12:27;2.67;;;1.40;;
49464;SDS011;35358;49.342;8.802;2023-02-05T18:14:53;2.17;;;1.70;;
49464;SDS011;35358;49.342;8.802;2023-02-05T18:17:18;1.08;;;1.00;;
49464;SDS011;35358;49.342;8.802;2023-02-05T18:19:44;1.70;;;1.13;;
49464;SDS011;35358;49.342;8.802;2023-02-05T18:22:10;1.38;;;1.23;;
49464;SDS011;35358;49.342;8.802;2023-02-05T18:24:36;1.63;;;1.23;;
49464;SDS011;35358;49.342;8.802;2023-02-05T18:27:05;1.88;;;1.60;;
49464;SDS011;35358;49.342;8.802;2023-02-05T18:29:36;2.10;;;1.67;;
49464;SDS011;35358;49.342;8.802;2023-02-05T18:32:04;2.00;;;1.63;;
49464;SDS011;35358;49.342;8.802;2023-02-05T18:34:32;2.22;;;1.95;;
49464;SDS011;35358;49.342;8.802;2023-02-05T18:36:58;1.90;;;1.70;;
49464;SDS011;35358;49.342;8.802;2023-02-05T18:39:26;2.40;;;1.67;;
49464;SDS011;35358;49.342;8.802;2023-02-05T18:41:53;2.45;;;1.80;;
49464;SDS011;35358;49.342;8.802;2023-02-05T18:44:26;2.10;;;1.90;;
49464;SDS011;35358;49.342;8.802;2023-02-05T18:46:52;2.38;;;2.17;;
49464;SDS011;35358;49.342;8.802;2023-02-05T18:49:18;2.42;;;1.98;;
49464;SDS011;35358;49.342;8.802;2023-02-05T18:51:44;3.08;;;2.17;;
49464;SDS011;35358;49.342;8.802;2023-02-05T18:54:12;2.55;;;1.90;;